createdAt,value
2023-03-24T00:01:07.498Z,11.60
2023-03-24T00:03:53.480Z,11.56
2023-03-24T00:06:40.023Z,11.47
2023-03-24T00:09:26.058Z,11.47
2023-03-24T00:12:14.020Z,11.45
2023-03-24T00:15:02.783Z,11.28
2023-03-24T00:17:52.600Z,11.33
2023-03-24T00:20:38.610Z,11.24
2023-03-24T00:23:32.923Z,11.22
2023-03-24T00:26:18.987Z,11.20
2023-03-24T00:29:06.589Z,11.16
2023-03-24T00:31:53.258Z,11.12
2023-03-24T00:34:39.138Z,11.06
2023-03-24T00:37:24.995Z,10.96
2023-03-24T00:40:13.624Z,11.03
2023-03-24T00:42:59.415Z,10.95
2023-03-24T00:45:48.544Z,10.94
2023-03-24T00:48:35.255Z,10.92
2023-03-24T00:51:21.050Z,10.81
2023-03-24T00:54:09.378Z,10.82
2023-03-24T00:56:56.000Z,10.81
2023-03-24T00:59:48.997Z,10.79
2023-03-24T01:02:34.870Z,10.64
2023-03-24T01:05:23.434Z,10.64
2023-03-24T01:08:10.702Z,10.62
2023-03-24T01:10:57.380Z,10.61
2023-03-24T01:13:43.103Z,10.59
2023-03-24T01:16:29.083Z,10.52
2023-03-24T01:19:15.542Z,10.54
2023-03-24T01:22:02.583Z,10.51
2023-03-24T01:24:49.955Z,10.48
2023-03-24T01:27:37.525Z,10.41
2023-03-24T01:30:27.156Z,10.33
2023-03-24T01:33:13.237Z,10.30
2023-03-24T01:35:59.105Z,10.29
2023-03-24T01:38:45.059Z,10.23
2023-03-24T01:41:35.537Z,10.26
2023-03-24T01:44:24.753Z,10.21
2023-03-24T01:47:11.043Z,10.10
2023-03-24T01:49:59.749Z,10.15
2023-03-24T01:52:45.694Z,10.14
2023-03-24T01:55:32.323Z,10.06
2023-03-24T01:58:19.573Z,10.05
2023-03-24T02:01:19.675Z,9.97
2023-03-24T02:04:16.149Z,9.98
2023-03-24T02:07:11.808Z,9.84
2023-03-24T02:09:57.745Z,9.84
2023-03-24T02:12:44.513Z,9.84
2023-03-24T02:15:32.126Z,9.86
2023-03-24T02:18:46.650Z,9.74
2023-03-24T02:21:55.603Z,9.72
2023-03-24T02:25:13.346Z,9.63
2023-03-24T02:28:05.366Z,9.60
2023-03-24T02:31:12.587Z,9.64
2023-03-24T02:34:13.141Z,9.63
2023-03-24T02:37:21.278Z,9.57
2023-03-24T02:40:24.296Z,9.39
2023-03-24T02:43:19.373Z,9.38
2023-03-24T02:46:18.243Z,9.46
2023-03-24T02:49:26.535Z,9.42
2023-03-24T02:52:49.832Z,9.40
2023-03-24T02:56:00.028Z,9.37
2023-03-24T02:58:56.200Z,9.31
2023-03-24T03:01:54.421Z,9.26
2023-03-24T03:05:01.295Z,9.29
2023-03-24T03:07:48.105Z,9.24
2023-03-24T03:10:37.919Z,9.22
2023-03-24T03:13:34.804Z,9.13
2023-03-24T03:16:25.586Z,9.19
2023-03-24T03:19:18.209Z,9.14
2023-03-24T03:22:10.657Z,9.13
2023-03-24T03:24:58.071Z,9.11
2023-03-24T03:27:46.959Z,9.08
2023-03-24T03:30:40.095Z,9.05
2023-03-24T03:33:36.028Z,9.03
2023-03-24T03:36:29.765Z,8.93
2023-03-24T03:39:31.606Z,9.03
2023-03-24T03:42:20.550Z,9.01
2023-03-24T03:45:09.433Z,8.92
2023-03-24T03:47:55.671Z,8.96
2023-03-24T03:50:41.836Z,8.95
2023-03-24T03:53:35.012Z,8.97
2023-03-24T03:56:23.990Z,8.91
2023-03-24T03:59:40.397Z,8.94
2023-03-24T04:02:43.276Z,8.92
2023-03-24T04:05:36.142Z,8.89
2023-03-24T04:08:31.500Z,8.87
2023-03-24T04:12:12.143Z,8.68
2023-03-24T04:15:04.878Z,8.81
2023-03-24T04:18:22.980Z,8.70
2023-03-24T04:21:55.161Z,8.74
2023-03-24T04:24:58.012Z,8.57
2023-03-24T04:28:16.568Z,8.72
2023-03-24T04:31:14.483Z,8.64
2023-03-24T04:34:05.968Z,8.63
2023-03-24T04:37:04.325Z,8.59
2023-03-24T04:40:21.088Z,8.59
2023-03-24T04:43:08.608Z,8.60
2023-03-24T04:45:58.003Z,8.56
2023-03-24T04:48:52.321Z,8.41
2023-03-24T04:51:48.796Z,8.49
2023-03-24T04:54:38.999Z,8.42
2023-03-24T04:57:26.575Z,8.44
2023-03-24T05:00:19.317Z,8.36
2023-03-24T05:03:05.552Z,8.35
2023-03-24T05:05:53.185Z,8.40
2023-03-24T05:08:39.738Z,8.31
2023-03-24T05:11:27.305Z,8.27
2023-03-24T05:14:21.638Z,8.37
2023-03-24T05:17:08.174Z,8.40
2023-03-24T05:19:53.932Z,8.40
2023-03-24T05:22:41.048Z,8.38
2023-03-24T05:25:27.829Z,8.40
2023-03-24T05:28:13.854Z,8.38
2023-03-24T05:31:00.401Z,8.41
2023-03-24T05:34:09.910Z,8.42
2023-03-24T05:37:16.978Z,8.45
2023-03-24T05:40:09.649Z,8.36
2023-03-24T05:43:04.244Z,8.53
2023-03-24T05:45:56.284Z,8.45
2023-03-24T05:48:48.369Z,8.53
2023-03-24T05:51:37.148Z,8.58
2023-03-24T05:54:25.581Z,8.70
2023-03-24T05:57:20.721Z,8.78
2023-03-24T06:00:33.777Z,8.86
2023-03-24T06:03:34.268Z,8.82
2023-03-24T06:06:26.338Z,9.00
2023-03-24T06:09:14.770Z,9.09
2023-03-24T06:12:03.032Z,9.15
2023-03-24T06:14:53.500Z,9.24
2023-03-24T06:17:39.486Z,9.33
2023-03-24T06:20:33.981Z,9.45
2023-03-24T06:23:27.675Z,9.53
2023-03-24T06:26:21.411Z,9.67
2023-03-24T06:29:20.334Z,9.65
2023-03-24T06:32:06.299Z,9.87
2023-03-24T06:34:58.925Z,9.93
2023-03-24T06:38:08.634Z,9.98
2023-03-24T06:41:01.170Z,10.00
2023-03-24T06:43:47.565Z,10.16
2023-03-24T06:46:33.866Z,10.24
2023-03-24T06:49:19.978Z,10.32
2023-03-24T06:52:05.996Z,10.41
2023-03-24T06:54:56.084Z,10.46
2023-03-24T06:57:42.180Z,10.51
2023-03-24T07:00:48.457Z,10.72
2023-03-24T07:03:45.851Z,10.76
2023-03-24T07:06:58.677Z,10.96
2023-03-24T07:09:50.528Z,11.10
2023-03-24T07:12:36.601Z,11.18
2023-03-24T07:15:22.898Z,11.28
2023-03-24T07:18:08.773Z,11.39
2023-03-24T07:20:58.214Z,11.45
2023-03-24T07:23:44.964Z,11.61
2023-03-24T07:26:36.458Z,11.72
2023-03-24T07:29:38.913Z,11.79
2023-03-24T07:32:51.395Z,12.01
2023-03-24T07:35:37.530Z,12.12
2023-03-24T07:38:26.077Z,12.28
2023-03-24T07:41:15.993Z,12.29
2023-03-24T07:44:09.028Z,12.31
2023-03-24T07:47:07.939Z,12.58
2023-03-24T07:49:53.759Z,12.68
2023-03-24T07:52:41.282Z,12.84
2023-03-24T07:55:27.946Z,12.94
2023-03-24T07:58:18.353Z,13.07
2023-03-24T08:01:20.000Z,13.21
2023-03-24T08:04:12.373Z,13.33
2023-03-24T08:07:30.358Z,13.40
2023-03-24T08:10:16.780Z,13.59
2023-03-24T08:13:03.028Z,13.72
2023-03-24T08:15:49.341Z,13.81
2023-03-24T08:18:38.807Z,13.99
2023-03-24T08:21:25.638Z,14.10
2023-03-24T08:24:11.701Z,14.11
2023-03-24T08:26:59.675Z,14.30
2023-03-24T08:29:45.912Z,14.48
2023-03-24T08:32:31.988Z,14.58
2023-03-24T08:35:20.493Z,14.56
2023-03-24T08:38:08.400Z,14.81
2023-03-24T08:40:54.383Z,14.88
2023-03-24T08:43:40.573Z,14.97
2023-03-24T08:46:26.707Z,15.18
2023-03-24T08:49:12.564Z,15.34
2023-03-24T08:51:58.300Z,15.46
2023-03-24T08:54:44.339Z,15.56
2023-03-24T08:57:30.572Z,15.72
2023-03-24T09:00:18.485Z,15.79
2023-03-24T09:03:06.752Z,16.01
2023-03-24T09:05:57.265Z,16.16
2023-03-24T09:08:43.669Z,16.22
2023-03-24T09:11:29.524Z,16.49
2023-03-24T09:14:15.985Z,16.59
2023-03-24T09:17:02.108Z,16.76
2023-03-24T09:19:48.079Z,16.89
2023-03-24T09:22:37.056Z,17.04
2023-03-24T09:25:23.780Z,17.19
2023-03-24T09:28:10.000Z,17.28
2023-03-24T09:31:00.700Z,17.48
2023-03-24T09:33:47.073Z,17.60
2023-03-24T09:36:32.840Z,17.72
2023-03-24T09:39:20.114Z,17.84
2023-03-24T09:42:06.634Z,17.96
2023-03-24T09:44:55.911Z,18.17
2023-03-24T09:47:46.056Z,18.32
2023-03-24T09:50:57.428Z,18.33
2023-03-24T09:54:10.785Z,18.54
2023-03-24T09:56:57.794Z,18.72
2023-03-24T09:59:43.395Z,18.72
2023-03-24T10:02:31.643Z,18.92
2023-03-24T10:05:23.191Z,18.99
2023-03-24T10:08:25.256Z,19.16
2023-03-24T10:11:29.661Z,19.32
2023-03-24T10:14:34.272Z,19.43
2023-03-24T10:17:29.922Z,19.40
2023-03-24T10:21:13.276Z,19.52
2023-03-24T10:24:09.132Z,19.74
2023-03-24T10:27:01.011Z,19.91
2023-03-24T10:29:48.138Z,20.03
2023-03-24T10:32:35.473Z,19.91
2023-03-24T10:35:25.787Z,20.09
2023-03-24T10:38:20.689Z,20.17
2023-03-24T10:41:06.927Z,20.39
2023-03-24T10:43:54.898Z,20.49
2023-03-24T10:46:47.129Z,20.57
2023-03-24T10:49:33.768Z,20.65
2023-03-24T10:52:19.927Z,20.78
2023-03-24T10:55:07.220Z,20.92
2023-03-24T10:57:56.219Z,20.95
2023-03-24T11:00:44.274Z,21.03
2023-03-24T11:03:32.799Z,21.15
2023-03-24T11:06:21.626Z,21.16
2023-03-24T11:09:22.378Z,21.11
2023-03-24T11:12:23.383Z,21.18
2023-03-24T11:15:41.925Z,21.23
2023-03-24T11:18:27.754Z,21.57
2023-03-24T11:21:13.618Z,21.65
2023-03-24T11:24:01.465Z,21.69
2023-03-24T11:27:03.930Z,21.72
2023-03-24T11:29:54.216Z,21.78
2023-03-24T11:32:45.980Z,21.75
2023-03-24T11:35:41.249Z,21.91
2023-03-24T11:38:33.114Z,21.94
2023-03-24T11:41:22.034Z,22.03
2023-03-24T11:44:18.923Z,22.08
2023-03-24T11:47:04.974Z,22.09
2023-03-24T11:50:09.459Z,22.05
2023-03-24T11:53:01.444Z,22.27
2023-03-24T11:56:06.166Z,22.27
2023-03-24T11:58:56.083Z,22.36
2023-03-24T12:02:08.238Z,22.30
2023-03-24T12:05:09.623Z,22.42
2023-03-24T12:07:55.712Z,22.47
2023-03-24T12:10:41.575Z,22.43
2023-03-24T12:13:35.773Z,22.46
2023-03-24T12:16:39.967Z,22.47
2023-03-24T12:19:49.651Z,22.46
2023-03-24T12:22:41.428Z,22.52
2023-03-24T12:25:39.670Z,22.62
2023-03-24T12:28:59.222Z,22.67
2023-03-24T12:31:55.195Z,22.69
2023-03-24T12:35:00.346Z,22.82
2023-03-24T12:38:08.501Z,22.81
2023-03-24T12:41:09.800Z,22.90
2023-03-24T12:43:56.016Z,23.08
2023-03-24T12:46:50.423Z,23.14
2023-03-24T12:49:49.809Z,23.25
2023-03-24T12:55:51.638Z,23.37
2023-03-24T12:58:50.560Z,23.46
2023-03-24T13:01:43.789Z,23.52
2023-03-24T13:04:33.107Z,23.62
2023-03-24T13:07:25.773Z,23.66
2023-03-24T13:10:22.418Z,23.84
2023-03-24T13:13:23.174Z,23.86
2023-03-24T13:16:24.679Z,23.93
2023-03-24T13:19:29.307Z,24.04
2023-03-24T13:22:16.965Z,24.31
2023-03-24T13:25:05.217Z,24.38
2023-03-24T13:27:53.867Z,24.48
2023-03-24T13:30:41.902Z,24.52
2023-03-24T13:33:30.289Z,24.59
2023-03-24T13:36:25.945Z,24.72
2023-03-24T13:39:15.039Z,24.76
2023-03-24T13:42:01.130Z,24.87
2023-03-24T13:44:48.669Z,24.90
2023-03-24T13:48:10.535Z,24.92
2023-03-24T13:51:07.449Z,25.15
2023-03-24T13:54:04.947Z,25.16
2023-03-24T13:57:16.275Z,25.81
2023-03-24T14:00:12.087Z,26.46
2023-03-24T14:03:17.304Z,26.94
2023-03-24T14:06:07.565Z,27.67
2023-03-24T14:09:16.684Z,28.20
2023-03-24T14:12:03.124Z,28.74
2023-03-24T14:15:22.427Z,29.19
2023-03-24T14:18:23.427Z,29.58
2023-03-24T14:21:10.461Z,29.70
2023-03-24T14:23:58.779Z,29.69
2023-03-24T14:26:46.157Z,29.76
2023-03-24T14:29:40.524Z,29.76
2023-03-24T14:32:26.744Z,29.72
2023-03-24T14:35:44.514Z,30.00
2023-03-24T14:38:35.592Z,30.19
2023-03-24T14:41:31.280Z,30.55
2023-03-24T14:44:46.610Z,30.91
2023-03-24T14:47:34.101Z,31.09
2023-03-24T14:50:22.577Z,31.33
2023-03-24T14:53:18.910Z,31.40
2023-03-24T14:56:08.067Z,31.50
2023-03-24T14:58:58.706Z,31.46
2023-03-24T15:01:49.180Z,31.48
2023-03-24T15:04:39.751Z,31.56
2023-03-24T15:07:25.980Z,31.60
2023-03-24T15:10:16.502Z,31.66
2023-03-24T15:13:05.288Z,31.65
2023-03-24T15:15:54.722Z,31.53
2023-03-24T15:21:50.197Z,31.52
2023-03-24T15:24:38.524Z,31.53
2023-03-24T15:27:27.415Z,31.42
2023-03-24T15:30:16.579Z,31.24
2023-03-24T15:33:14.128Z,30.96
2023-03-24T15:36:02.278Z,30.73
2023-03-24T15:38:52.204Z,30.54
2023-03-24T15:41:38.362Z,30.49
2023-03-24T15:44:27.030Z,30.45
2023-03-24T15:47:25.722Z,30.39
2023-03-24T15:50:29.235Z,30.45
2023-03-24T15:53:15.895Z,30.39
2023-03-24T15:56:13.776Z,30.25
2023-03-24T15:59:05.938Z,30.00
2023-03-24T16:01:52.057Z,29.85
2023-03-24T16:04:38.663Z,29.68
2023-03-24T16:07:29.707Z,29.40
2023-03-24T16:10:45.149Z,29.05
2023-03-24T16:13:31.148Z,28.79
2023-03-24T16:16:30.837Z,28.43
2023-03-24T16:19:16.930Z,28.14
2023-03-24T16:22:09.733Z,27.81
2023-03-24T16:24:55.784Z,27.52
2023-03-24T16:27:41.595Z,27.15
2023-03-24T16:30:29.042Z,26.91
2023-03-24T16:33:15.166Z,26.68
2023-03-24T16:36:01.274Z,26.30
2023-03-24T16:38:48.736Z,26.05
2023-03-24T16:41:34.510Z,25.96
2023-03-24T16:44:21.258Z,25.68
2023-03-24T16:47:11.539Z,25.47
2023-03-24T16:49:57.783Z,25.22
2023-03-24T16:52:43.599Z,25.00
2023-03-24T16:55:29.577Z,24.90
2023-03-24T16:58:17.133Z,24.65
2023-03-24T17:01:04.406Z,24.48
2023-03-24T17:03:50.544Z,24.33
2023-03-24T17:06:39.736Z,24.09
2023-03-24T17:09:25.826Z,23.97
2023-03-24T17:12:11.777Z,23.75
2023-03-24T17:14:57.721Z,23.70
2023-03-24T17:17:43.689Z,23.54
2023-03-24T17:20:29.691Z,23.35
2023-03-24T17:23:18.687Z,23.24
2023-03-24T17:26:05.205Z,23.15
2023-03-24T17:28:51.083Z,23.01
2023-03-24T17:31:37.137Z,22.91
2023-03-24T17:34:23.049Z,22.78
2023-03-24T17:37:09.124Z,22.64
2023-03-24T17:39:57.006Z,22.54
2023-03-24T17:42:46.328Z,22.32
2023-03-24T17:45:32.666Z,22.28
2023-03-24T17:48:18.500Z,22.18
2023-03-24T17:51:05.090Z,22.01
2023-03-24T17:53:53.683Z,21.90
2023-03-24T17:56:40.261Z,21.77
2023-03-24T17:59:26.684Z,21.77
2023-03-24T18:02:27.146Z,21.64
2023-03-24T18:05:13.304Z,21.59
2023-03-24T18:07:59.264Z,21.44
2023-03-24T18:10:45.275Z,21.39
2023-03-24T18:13:31.465Z,21.16
2023-03-24T18:16:21.787Z,21.11
2023-03-24T18:19:08.627Z,21.09
2023-03-24T18:21:54.473Z,21.01
2023-03-24T18:24:41.318Z,20.94
2023-03-24T18:27:27.248Z,20.90
2023-03-24T18:30:14.093Z,20.76
2023-03-24T18:33:01.546Z,20.68
2023-03-24T18:35:52.828Z,20.64
2023-03-24T18:38:39.623Z,20.58
2023-03-24T18:41:28.027Z,20.55
2023-03-24T18:44:15.748Z,20.34
2023-03-24T18:47:01.990Z,20.34
2023-03-24T18:49:48.161Z,20.31
2023-03-24T18:52:33.939Z,20.25
2023-03-24T18:55:20.910Z,20.16
2023-03-24T18:58:10.150Z,20.13
2023-03-24T19:00:57.638Z,20.01
2023-03-24T19:03:44.766Z,19.95
2023-03-24T19:06:35.210Z,19.88
2023-03-24T19:09:23.060Z,19.92
2023-03-24T19:12:09.871Z,19.87
2023-03-24T19:14:56.104Z,19.75
2023-03-24T19:17:42.393Z,19.71
2023-03-24T19:20:28.515Z,19.68
2023-03-24T19:23:15.318Z,19.50
2023-03-24T19:26:01.897Z,19.51
2023-03-24T19:28:48.695Z,19.43
2023-03-24T19:31:35.309Z,19.36
2023-03-24T19:34:21.667Z,19.35
2023-03-24T19:37:10.503Z,19.31
2023-03-24T19:39:56.786Z,19.26
2023-03-24T19:42:45.258Z,19.15
2023-03-24T19:45:31.486Z,19.11
2023-03-24T19:48:17.853Z,19.08
2023-03-24T19:51:04.364Z,19.07
2023-03-24T19:53:50.388Z,19.04
2023-03-24T19:56:36.621Z,18.97
2023-03-24T19:59:22.904Z,18.92
2023-03-24T20:02:15.780Z,18.78
2023-03-24T20:05:01.846Z,18.82
2023-03-24T20:07:47.852Z,18.82
2023-03-24T20:10:36.414Z,18.78
2023-03-24T20:13:24.251Z,18.70
2023-03-24T20:16:10.390Z,18.62
2023-03-24T20:18:56.815Z,18.58
2023-03-24T20:21:43.657Z,18.54
2023-03-24T20:24:30.089Z,18.47
2023-03-24T20:27:16.591Z,18.45
2023-03-24T20:30:03.575Z,18.39
2023-03-24T20:32:50.395Z,18.36
2023-03-24T20:35:36.923Z,18.32
2023-03-24T20:38:24.299Z,18.31
2023-03-24T20:41:10.390Z,18.24
2023-03-24T20:43:57.121Z,18.21
2023-03-24T20:46:44.235Z,18.19
2023-03-24T20:49:33.001Z,18.14
2023-03-24T20:52:20.722Z,18.05
2023-03-24T20:55:08.861Z,18.03
2023-03-24T20:57:55.965Z,18.01
2023-03-24T21:00:46.096Z,17.96
2023-03-24T21:03:32.273Z,17.85
2023-03-24T21:06:18.869Z,17.77
2023-03-24T21:09:05.716Z,17.81
2023-03-24T21:11:51.705Z,17.75
2023-03-24T21:14:37.634Z,17.69
2023-03-24T21:17:32.534Z,17.65
2023-03-24T21:20:19.097Z,17.59
2023-03-24T21:23:05.095Z,17.56
2023-03-24T21:25:52.239Z,17.50
2023-03-24T21:28:39.106Z,17.46
2023-03-24T21:31:26.789Z,17.37
2023-03-24T21:34:12.832Z,17.42
2023-03-24T21:37:01.548Z,17.38
2023-03-24T21:39:47.666Z,17.22
2023-03-24T21:42:34.950Z,17.26
2023-03-24T21:45:23.595Z,17.28
2023-03-24T21:48:10.965Z,17.19
2023-03-24T21:50:57.520Z,17.23
2023-03-24T21:53:43.721Z,17.19
2023-03-24T21:56:31.812Z,17.19
2023-03-24T21:59:17.883Z,17.10
2023-03-24T22:02:04.265Z,17.08
2023-03-24T22:04:50.599Z,17.06
2023-03-24T22:07:37.485Z,16.95
2023-03-24T22:10:24.643Z,16.97
2023-03-24T22:13:10.673Z,16.93
2023-03-24T22:15:59.136Z,16.97
2023-03-24T22:18:47.251Z,16.85
2023-03-24T22:21:33.065Z,16.78
2023-03-24T22:24:19.024Z,16.77
2023-03-24T22:27:04.882Z,16.82
2023-03-24T22:29:51.052Z,16.77
2023-03-24T22:32:37.336Z,16.69
2023-03-24T22:35:23.606Z,16.74
2023-03-24T22:38:14.899Z,16.65
2023-03-24T22:41:03.839Z,16.61
2023-03-24T22:43:49.607Z,16.44
2023-03-24T22:46:35.633Z,16.40
2023-03-24T22:49:21.871Z,16.43
2023-03-24T22:52:08.234Z,16.39
2023-03-24T22:54:54.229Z,16.29
2023-03-24T22:57:40.332Z,16.15
2023-03-24T23:00:26.270Z,16.20
2023-03-24T23:03:12.331Z,16.12
2023-03-24T23:06:02.345Z,16.04
2023-03-24T23:08:49.525Z,16.02
2023-03-24T23:11:35.720Z,15.88
2023-03-24T23:14:22.132Z,15.79
2023-03-24T23:17:09.560Z,15.78
2023-03-24T23:19:55.393Z,15.71
2023-03-24T23:22:41.987Z,15.63
2023-03-24T23:25:31.098Z,15.49
2023-03-24T23:28:17.307Z,15.31
2023-03-24T23:31:13.524Z,15.34
2023-03-24T23:34:00.270Z,15.18
2023-03-24T23:36:50.605Z,15.19
2023-03-24T23:39:37.491Z,15.14
2023-03-24T23:42:24.106Z,15.02
2023-03-24T23:45:11.221Z,15.02
2023-03-24T23:47:57.552Z,14.95
2023-03-24T23:50:46.394Z,14.83
2023-03-24T23:53:32.213Z,14.81
2023-03-24T23:56:21.708Z,14.71
2023-03-24T23:59:08.342Z,14.67
